createdAt,value
2022-08-12T00:01:01.271Z,47.64
2022-08-12T00:03:51.259Z,47.87
2022-08-12T00:06:41.146Z,48.01
2022-08-12T00:09:31.580Z,48.12
2022-08-12T00:12:21.096Z,48.24
2022-08-12T00:15:09.794Z,48.24
2022-08-12T00:17:59.336Z,48.26
2022-08-12T00:20:47.437Z,48.22
2022-08-12T00:23:40.335Z,48.13
2022-08-12T00:26:32.190Z,48.25
2022-08-12T00:29:22.262Z,48.34
2022-08-12T00:32:10.883Z,48.33
2022-08-12T00:35:09.077Z,48.33
2022-08-12T00:38:01.218Z,48.30
2022-08-12T00:40:51.489Z,48.47
2022-08-12T00:43:24.269Z,48.38
2022-08-12T00:46:16.342Z,48.43
2022-08-12T00:48:47.040Z,48.61
2022-08-12T00:51:20.678Z,48.52
2022-08-12T00:53:50.543Z,48.69
2022-08-12T00:56:22.957Z,48.83
2022-08-12T00:58:54.034Z,49.01
2022-08-12T01:01:26.322Z,49.18
2022-08-12T01:04:16.672Z,49.10
2022-08-12T01:07:23.646Z,49.32
2022-08-12T01:10:14.818Z,49.52
2022-08-12T01:12:54.775Z,49.89
2022-08-12T01:15:43.117Z,50.09
2022-08-12T01:18:15.922Z,49.83
2022-08-12T01:20:52.392Z,50.26
2022-08-12T01:23:46.837Z,50.12
2022-08-12T01:26:23.029Z,50.50
2022-08-12T01:28:58.641Z,50.72
2022-08-12T01:31:31.292Z,50.81
2022-08-12T01:34:36.585Z,50.97
2022-08-12T01:37:07.981Z,51.01
2022-08-12T01:40:34.714Z,50.87
2022-08-12T01:42:51.585Z,50.74
2022-08-12T01:45:25.163Z,51.14
2022-08-12T01:48:17.879Z,51.22
2022-08-12T01:51:40.732Z,51.29
2022-08-12T01:54:14.337Z,51.38
2022-08-12T01:57:01.961Z,51.48
2022-08-12T01:59:47.512Z,51.68
2022-08-12T02:02:33.886Z,51.80
2022-08-12T02:05:35.010Z,51.85
2022-08-12T02:08:52.443Z,51.86
2022-08-12T02:11:29.554Z,51.89
2022-08-12T02:14:37.079Z,51.81
2022-08-12T02:17:55.148Z,51.76
2022-08-12T02:20:54.376Z,51.88
2022-08-12T02:23:28.335Z,51.87
2022-08-12T02:26:05.119Z,51.95
2022-08-12T02:28:39.996Z,51.89
2022-08-12T02:31:13.502Z,51.89
2022-08-12T02:33:49.318Z,51.91
2022-08-12T02:36:19.427Z,51.96
2022-08-12T02:38:54.474Z,52.15
2022-08-12T02:41:29.091Z,52.00
2022-08-12T02:44:08.070Z,52.16
2022-08-12T02:46:40.426Z,52.28
2022-08-12T02:49:20.679Z,52.29
2022-08-12T02:51:51.914Z,52.27
2022-08-12T02:54:23.873Z,52.43
2022-08-12T02:56:55.615Z,52.37
2022-08-12T02:59:27.806Z,52.51
2022-08-12T03:02:03.925Z,52.54
2022-08-12T03:04:44.878Z,52.62
2022-08-12T03:07:59.330Z,52.62
2022-08-12T03:10:39.960Z,52.58
2022-08-12T03:13:18.077Z,52.70
2022-08-12T03:15:48.901Z,52.79
2022-08-12T03:18:30.485Z,52.57
2022-08-12T03:21:02.452Z,52.87
2022-08-12T03:23:32.009Z,52.90
2022-08-12T03:26:04.352Z,52.91
2022-08-12T03:28:51.371Z,52.78
2022-08-12T03:31:28.907Z,53.02
2022-08-12T03:34:05.700Z,53.03
2022-08-12T03:36:37.362Z,52.96
2022-08-12T03:39:16.843Z,53.04
2022-08-12T03:42:05.070Z,53.07
2022-08-12T03:45:13.436Z,53.25
2022-08-12T03:48:09.069Z,53.22
2022-08-12T03:50:59.531Z,53.28
2022-08-12T03:53:49.193Z,53.17
2022-08-12T03:56:38.433Z,53.30
2022-08-12T03:59:27.053Z,53.40
2022-08-12T04:01:59.566Z,53.58
2022-08-12T04:04:35.470Z,53.30
2022-08-12T04:07:09.201Z,53.51
2022-08-12T04:09:44.100Z,53.29
2022-08-12T04:12:33.382Z,53.40
2022-08-12T04:15:05.590Z,53.50
2022-08-12T04:17:35.292Z,53.50
2022-08-12T04:20:11.662Z,53.43
2022-08-12T04:22:41.971Z,53.49
2022-08-12T04:25:13.464Z,53.49
2022-08-12T04:27:47.365Z,53.47
2022-08-12T04:30:32.118Z,53.46
2022-08-12T04:33:06.979Z,53.45
2022-08-12T04:35:37.859Z,53.42
2022-08-12T04:38:09.336Z,53.37
2022-08-12T04:40:40.287Z,53.40
2022-08-12T04:43:59.672Z,53.38
2022-08-12T04:46:03.198Z,53.44
2022-08-12T04:48:35.155Z,53.51
2022-08-12T04:51:07.747Z,53.58
2022-08-12T04:53:38.618Z,53.53
2022-08-12T04:56:08.836Z,53.61
2022-08-12T04:58:39.246Z,53.58
2022-08-12T05:01:08.378Z,53.65
2022-08-12T05:03:46.081Z,53.54
2022-08-12T05:06:26.793Z,53.55
2022-08-12T05:09:01.908Z,53.42
2022-08-12T05:11:54.238Z,53.45
2022-08-12T05:14:24.955Z,53.54
2022-08-12T05:16:54.600Z,53.47
2022-08-12T05:19:24.145Z,53.21
2022-08-12T05:21:54.696Z,53.29
2022-08-12T05:24:24.345Z,53.25
2022-08-12T05:26:53.567Z,53.12
2022-08-12T05:30:06.607Z,53.22
2022-08-12T05:32:20.882Z,53.26
2022-08-12T05:34:51.889Z,53.08
2022-08-12T05:37:23.125Z,53.11
2022-08-12T05:39:55.112Z,53.20
2022-08-12T05:42:34.325Z,53.18
2022-08-12T05:45:04.887Z,52.99
2022-08-12T05:47:52.797Z,52.88
2022-08-12T05:50:23.115Z,53.03
2022-08-12T05:52:53.979Z,52.81
2022-08-12T05:55:26.997Z,52.68
2022-08-12T05:58:02.479Z,52.33
2022-08-12T06:00:32.853Z,52.34
2022-08-12T06:03:06.465Z,52.31
2022-08-12T06:05:43.210Z,52.26
2022-08-12T06:08:26.077Z,51.98
2022-08-12T06:10:57.495Z,51.95
2022-08-12T06:13:53.796Z,51.88
2022-08-12T06:16:21.969Z,51.63
2022-08-12T06:18:51.796Z,51.79
2022-08-12T06:21:23.993Z,51.86
2022-08-12T06:23:54.961Z,51.55
2022-08-12T06:26:25.730Z,51.65
2022-08-12T06:29:02.533Z,51.36
2022-08-12T06:31:33.547Z,50.88
2022-08-12T06:35:26.416Z,51.05
2022-08-12T06:36:57.474Z,50.96
2022-08-12T06:39:27.701Z,50.72
2022-08-12T06:42:32.021Z,50.77
2022-08-12T06:45:02.895Z,50.70
2022-08-12T06:47:37.181Z,50.45
2022-08-12T06:50:09.263Z,50.26
2022-08-12T06:52:38.517Z,50.43
2022-08-12T06:55:08.724Z,50.15
2022-08-12T06:58:07.579Z,50.13
2022-08-12T07:00:40.357Z,50.10
2022-08-12T07:03:23.218Z,50.10
2022-08-12T07:05:54.224Z,50.18
2022-08-12T07:08:30.978Z,49.58
2022-08-12T07:11:02.254Z,49.58
2022-08-12T07:14:12.434Z,50.04
2022-08-12T07:16:54.145Z,49.75
2022-08-12T07:19:25.575Z,49.68
2022-08-12T07:22:14.402Z,49.49
2022-08-12T07:25:05.212Z,49.36
2022-08-12T07:28:16.619Z,49.22
2022-08-12T07:30:52.046Z,49.36
2022-08-12T07:33:24.583Z,49.33
2022-08-12T07:35:56.161Z,49.37
2022-08-12T07:38:52.180Z,48.96
2022-08-12T07:41:29.261Z,48.88
2022-08-12T07:44:05.169Z,48.78
2022-08-12T07:47:51.191Z,48.67
2022-08-12T07:50:23.963Z,48.60
2022-08-12T07:52:55.021Z,48.10
2022-08-12T07:55:25.233Z,47.49
2022-08-12T07:58:00.681Z,47.44
2022-08-12T08:00:35.602Z,46.84
2022-08-12T08:03:07.153Z,46.46
2022-08-12T08:05:39.617Z,46.45
2022-08-12T08:08:19.938Z,46.32
2022-08-12T08:10:53.446Z,45.38
2022-08-12T08:13:23.603Z,44.59
2022-08-12T08:16:03.574Z,43.57
2022-08-12T08:18:38.054Z,43.75
2022-08-12T08:21:11.255Z,43.48
2022-08-12T08:24:07.176Z,42.70
2022-08-12T08:27:07.730Z,41.82
2022-08-12T08:29:48.903Z,40.97
2022-08-12T08:33:23.166Z,40.71
2022-08-12T08:36:35.285Z,39.49
2022-08-12T08:40:26.082Z,38.87
2022-08-12T08:43:58.750Z,36.90
2022-08-12T08:51:04.111Z,36.59
2022-08-12T08:57:13.781Z,34.88
2022-08-12T09:00:54.260Z,34.99
2022-08-12T09:05:09.308Z,34.92
2022-08-12T09:06:36.977Z,34.38
2022-08-12T09:10:02.378Z,33.10
2022-08-12T09:12:54.441Z,32.62
2022-08-12T09:42:34.284Z,28.27
2022-08-12T09:46:21.921Z,26.62
2022-08-12T09:49:44.703Z,26.12
2022-08-12T09:53:38.294Z,25.98
2022-08-12T10:00:15.323Z,26.26
2022-08-12T10:04:04.968Z,25.48
2022-08-12T10:09:57.926Z,25.49
2022-08-12T10:13:07.178Z,25.05
2022-08-12T10:16:05.249Z,25.43
2022-08-12T10:19:21.681Z,25.83
2022-08-12T11:40:03.506Z,27.09
2022-08-12T11:42:46.315Z,27.49
2022-08-12T11:45:20.005Z,27.44
2022-08-12T11:48:51.401Z,27.51
2022-08-12T12:19:45.461Z,27.93
2022-08-12T12:22:23.069Z,27.82
2022-08-12T12:25:13.832Z,27.87
2022-08-12T12:28:04.668Z,28.38
2022-08-12T12:38:04.146Z,28.70
2022-08-12T12:46:46.077Z,28.79
2022-08-12T12:50:06.120Z,28.73
2022-08-12T12:52:42.754Z,28.69
2022-08-12T12:55:13.611Z,29.21
2022-08-12T12:58:00.051Z,29.18
2022-08-12T13:01:26.975Z,28.82
2022-08-12T13:04:26.463Z,28.89
2022-08-12T13:07:02.412Z,29.17
2022-08-12T13:09:39.445Z,29.13
2022-08-12T13:12:18.400Z,29.27
2022-08-12T13:15:47.784Z,29.33
2022-08-12T13:49:55.128Z,30.80
2022-08-12T13:52:38.659Z,30.88
2022-08-12T13:55:16.089Z,30.76
2022-08-12T16:07:54.479Z,32.34
2022-08-12T16:10:30.987Z,32.40
2022-08-12T16:13:06.480Z,32.65
2022-08-12T16:15:42.236Z,32.74
2022-08-12T16:18:20.327Z,32.67
2022-08-12T16:20:52.353Z,32.76
2022-08-12T16:23:51.704Z,32.63
2022-08-12T16:26:20.020Z,32.76
2022-08-12T16:28:49.822Z,33.05
2022-08-12T16:31:24.056Z,33.19
2022-08-12T16:34:00.282Z,33.32
2022-08-12T16:36:31.541Z,33.30
2022-08-12T16:39:04.803Z,33.29
2022-08-12T16:41:39.923Z,33.44
2022-08-12T16:44:11.658Z,33.21
2022-08-12T16:46:40.687Z,33.73
2022-08-12T16:49:36.635Z,33.66
2022-08-12T16:52:16.411Z,33.65
2022-08-12T16:54:48.422Z,33.75
2022-08-12T16:57:35.215Z,33.96
2022-08-12T17:00:09.662Z,34.19
2022-08-12T17:02:50.529Z,34.15
2022-08-12T17:05:31.256Z,34.26
2022-08-12T17:08:02.183Z,34.11
2022-08-12T17:10:35.982Z,34.56
2022-08-12T17:13:10.559Z,34.55
2022-08-12T17:15:56.912Z,34.60
2022-08-12T17:18:45.505Z,34.42
2022-08-12T17:21:41.536Z,34.68
2022-08-12T17:24:16.947Z,34.70
2022-08-12T17:26:49.321Z,34.42
2022-08-12T17:29:24.278Z,34.82
2022-08-12T17:32:05.283Z,34.90
2022-08-12T17:34:53.403Z,34.65
2022-08-12T17:37:25.984Z,35.02
2022-08-12T17:40:12.567Z,35.00
2022-08-12T17:42:48.244Z,35.18
2022-08-12T17:45:20.149Z,35.39
2022-08-12T17:48:01.869Z,35.62
2022-08-12T17:50:38.241Z,35.58
2022-08-12T17:53:10.923Z,35.59
2022-08-12T17:55:48.099Z,35.66
2022-08-12T17:58:37.443Z,35.73
2022-08-12T18:01:11.438Z,36.01
2022-08-12T18:04:05.616Z,36.09
2022-08-12T18:06:38.305Z,36.34
2022-08-12T18:09:13.136Z,36.32
2022-08-12T18:12:07.378Z,36.35
2022-08-12T18:14:41.026Z,36.50
2022-08-12T18:17:28.921Z,36.72
2022-08-12T18:20:06.319Z,36.59
2022-08-12T18:22:38.525Z,36.72
2022-08-12T18:26:13.775Z,36.93
2022-08-12T18:28:18.825Z,37.09
2022-08-12T18:30:56.652Z,37.23
2022-08-12T18:33:41.684Z,37.23
2022-08-12T18:36:22.409Z,37.39
2022-08-12T18:38:59.734Z,37.37
2022-08-12T18:41:36.095Z,37.63
2022-08-12T18:44:10.719Z,37.67
2022-08-12T18:47:10.066Z,37.70
2022-08-12T18:49:50.895Z,38.08
2022-08-12T18:52:26.621Z,37.88
2022-08-12T18:55:02.228Z,38.18
2022-08-12T18:57:46.467Z,38.13
2022-08-12T19:00:33.569Z,38.41
2022-08-12T19:03:09.241Z,38.42
2022-08-12T19:06:01.820Z,38.76
2022-08-12T19:08:31.673Z,38.79
2022-08-12T19:11:23.235Z,39.04
2022-08-12T19:14:15.951Z,38.94
2022-08-12T19:16:56.091Z,39.02
2022-08-12T19:19:41.306Z,39.55
2022-08-12T19:22:12.411Z,39.71
2022-08-12T19:25:18.409Z,39.82
2022-08-12T19:27:52.809Z,40.00
2022-08-12T19:30:55.111Z,40.24
2022-08-12T19:33:25.797Z,40.43
2022-08-12T19:36:08.246Z,40.54
2022-08-12T19:38:57.157Z,40.59
2022-08-12T19:41:42.588Z,40.88
2022-08-12T19:44:26.636Z,41.10
2022-08-12T19:47:04.027Z,41.19
2022-08-12T19:49:36.563Z,41.17
2022-08-12T19:52:12.405Z,41.53
2022-08-12T19:54:56.026Z,41.52
2022-08-12T19:57:26.736Z,41.65
2022-08-12T20:00:04.015Z,41.82
2022-08-12T20:02:37.270Z,41.98
2022-08-12T20:06:05.931Z,42.14
2022-08-12T20:08:00.636Z,42.37
2022-08-12T20:10:36.416Z,42.48
2022-08-12T20:13:18.230Z,42.75
2022-08-12T20:15:52.070Z,43.04
2022-08-12T20:18:53.585Z,43.09
2022-08-12T20:21:24.227Z,43.22
2022-08-12T20:24:00.943Z,43.39
2022-08-12T20:26:36.027Z,43.59
2022-08-12T20:29:11.178Z,43.64
2022-08-12T20:31:41.428Z,43.63
2022-08-12T20:34:14.096Z,43.71
2022-08-12T20:36:57.296Z,43.85
2022-08-12T20:39:53.620Z,43.95
2022-08-12T20:42:25.097Z,43.81
2022-08-12T20:45:01.841Z,43.83
2022-08-12T20:47:46.627Z,43.85
2022-08-12T20:50:19.457Z,43.91
2022-08-12T20:52:49.983Z,44.01
2022-08-12T20:55:20.225Z,44.00
2022-08-12T20:58:02.442Z,44.00
2022-08-12T21:00:36.574Z,44.13
2022-08-12T21:03:27.017Z,44.29
2022-08-12T21:06:16.107Z,44.21
2022-08-12T21:08:48.365Z,44.26
2022-08-12T21:11:23.208Z,44.28
2022-08-12T21:13:59.343Z,44.30
2022-08-12T21:16:38.914Z,44.36
2022-08-12T21:19:22.197Z,44.52
2022-08-12T21:21:58.824Z,44.56
2022-08-12T21:24:32.406Z,44.53
2022-08-12T21:27:07.253Z,44.62
2022-08-12T21:29:54.968Z,44.64
2022-08-12T21:32:39.613Z,44.74
2022-08-12T21:35:10.474Z,44.74
2022-08-12T21:37:53.155Z,44.81
2022-08-12T21:40:37.116Z,44.97
2022-08-12T21:43:21.193Z,45.03
2022-08-12T21:46:00.774Z,44.97
2022-08-12T21:48:33.672Z,45.13
2022-08-12T21:51:23.139Z,45.07
2022-08-12T21:54:06.872Z,45.22
2022-08-12T21:56:38.535Z,45.21
2022-08-12T21:59:13.660Z,45.28
2022-08-12T22:01:49.839Z,45.23
2022-08-12T22:04:39.269Z,45.35
2022-08-12T22:07:11.224Z,45.45
2022-08-12T22:09:43.879Z,45.50
2022-08-12T22:12:37.717Z,45.49
2022-08-12T22:15:08.764Z,45.58
2022-08-12T22:17:55.464Z,45.62
2022-08-12T22:20:29.325Z,45.64
2022-08-12T22:23:02.459Z,45.72
2022-08-12T22:25:35.519Z,45.74
2022-08-12T22:28:27.863Z,45.83
2022-08-12T22:31:09.756Z,46.03
2022-08-12T22:33:54.406Z,45.90
2022-08-12T22:36:31.099Z,46.04
2022-08-12T22:39:05.562Z,46.03
2022-08-12T22:41:57.642Z,46.06
2022-08-12T22:44:52.777Z,46.17
2022-08-12T22:47:53.127Z,46.28
2022-08-12T22:50:29.689Z,46.48
2022-08-12T22:53:17.830Z,46.57
2022-08-12T22:56:00.342Z,46.70
2022-08-12T22:58:40.582Z,46.76
2022-08-12T23:01:13.776Z,46.97
2022-08-12T23:03:53.854Z,46.95
2022-08-12T23:06:25.568Z,47.05
2022-08-12T23:08:58.458Z,47.13
2022-08-12T23:11:33.632Z,47.28
2022-08-12T23:14:08.042Z,47.40
2022-08-12T23:16:43.893Z,47.45
2022-08-12T23:19:17.768Z,47.63
2022-08-12T23:22:05.322Z,47.65
2022-08-12T23:24:56.225Z,47.75
2022-08-12T23:27:51.885Z,47.83
2022-08-12T23:30:32.215Z,47.83
2022-08-12T23:33:19.767Z,48.02
2022-08-12T23:36:02.214Z,48.04
2022-08-12T23:38:36.883Z,48.17
2022-08-12T23:41:16.005Z,48.19
2022-08-12T23:43:50.150Z,48.24
2022-08-12T23:46:22.921Z,48.14
2022-08-12T23:49:01.043Z,48.26
2022-08-12T23:51:32.196Z,48.28
2022-08-12T23:54:07.529Z,48.34
2022-08-12T23:56:39.458Z,48.53
2022-08-12T23:59:16.943Z,48.54
